createdAt,value
2019-01-06T00:03:03.275Z,6.13
2019-01-06T00:06:07.979Z,4.77
2019-01-06T00:09:17.036Z,4.90
2019-01-06T00:12:19.484Z,6.00
2019-01-06T00:15:44.551Z,7.33
2019-01-06T00:18:57.838Z,4.13
2019-01-06T00:22:04.091Z,6.97
2019-01-06T00:25:10.691Z,6.23
2019-01-06T00:28:16.959Z,6.73
2019-01-06T00:31:38.427Z,5.57
2019-01-06T00:34:44.289Z,4.17
2019-01-06T00:37:49.371Z,4.53
2019-01-06T00:40:56.650Z,5.27
2019-01-06T00:44:01.977Z,6.20
2019-01-06T00:47:08.456Z,4.50
2019-01-06T00:50:33.209Z,4.97
2019-01-06T00:53:46.155Z,5.83
2019-01-06T00:56:57.004Z,4.33
2019-01-06T01:00:00.767Z,4.30
2019-01-06T01:03:06.151Z,4.73
2019-01-06T01:06:11.411Z,6.10
2019-01-06T01:09:37.203Z,6.17
2019-01-06T01:12:52.489Z,6.20
2019-01-06T01:16:02.444Z,3.90
2019-01-06T01:19:07.779Z,5.40
2019-01-06T01:22:18.413Z,4.47
2019-01-06T01:25:30.850Z,3.87
2019-01-06T01:28:36.530Z,4.73
2019-01-06T01:31:42.115Z,5.23
2019-01-06T01:35:03.876Z,4.67
2019-01-06T01:38:13.178Z,3.50
2019-01-06T01:41:34.367Z,5.47
2019-01-06T01:44:56.215Z,4.83
2019-01-06T01:48:15.360Z,3.97
2019-01-06T01:51:25.570Z,4.40
2019-01-06T01:54:40.606Z,3.37
2019-01-06T01:57:46.034Z,4.17
2019-01-06T02:00:47.930Z,4.93
2019-01-06T02:03:53.334Z,5.67
2019-01-06T02:06:53.945Z,4.63
2019-01-06T02:10:06.584Z,4.23
2019-01-06T02:13:28.528Z,4.37
2019-01-06T02:19:54.136Z,4.70
2019-01-06T02:22:59.659Z,5.37
2019-01-06T02:26:06.424Z,4.20
2019-01-06T02:29:11.546Z,4.03
2019-01-06T02:32:10.597Z,4.60
2019-01-06T02:35:16.089Z,5.00
2019-01-06T02:38:28.561Z,4.40
2019-01-06T02:41:41.708Z,4.43
2019-01-06T02:44:48.500Z,5.27
2019-01-06T02:47:53.804Z,3.80
2019-01-06T02:50:59.801Z,4.07
2019-01-06T02:54:14.928Z,4.63
2019-01-06T02:57:13.980Z,4.27
2019-01-06T03:00:19.948Z,4.10
2019-01-06T03:03:36.117Z,4.10
2019-01-06T03:06:55.186Z,5.50
2019-01-06T03:10:03.760Z,5.40
2019-01-06T03:13:16.254Z,3.33
2019-01-06T03:16:21.764Z,4.63
2019-01-06T03:19:28.240Z,3.67
2019-01-06T03:22:33.536Z,4.17
2019-01-06T03:25:39.971Z,3.23
2019-01-06T03:28:44.943Z,3.23
2019-01-06T03:31:51.040Z,4.57
2019-01-06T03:35:12.890Z,3.67
2019-01-06T03:38:19.250Z,3.27
2019-01-06T03:41:34.976Z,3.17
2019-01-06T03:44:42.336Z,3.07
2019-01-06T03:47:54.458Z,4.70
2019-01-06T03:50:59.763Z,2.90
2019-01-06T03:54:09.062Z,3.43
2019-01-06T03:57:25.032Z,4.33
2019-01-06T04:00:30.197Z,3.93
2019-01-06T04:03:42.221Z,3.43
2019-01-06T04:07:03.838Z,3.93
2019-01-06T04:10:13.259Z,2.80
2019-01-06T04:17:09.064Z,3.17
2019-01-06T04:20:14.450Z,3.93
2019-01-06T04:23:20.316Z,4.27
2019-01-06T04:26:29.225Z,2.90
2019-01-06T04:29:47.605Z,2.43
2019-01-06T04:33:09.551Z,2.60
2019-01-06T04:36:18.153Z,2.03
2019-01-06T04:39:24.718Z,2.83
2019-01-06T04:42:30.027Z,2.63
2019-01-06T04:45:34.837Z,3.67
2019-01-06T04:48:48.255Z,2.27
2019-01-06T04:52:04.187Z,2.63
2019-01-06T04:55:00.215Z,1.97
2019-01-06T04:58:05.223Z,3.90
2019-01-06T05:01:17.742Z,4.47
2019-01-06T05:04:24.392Z,3.97
2019-01-06T05:07:36.749Z,2.57
2019-01-06T05:11:01.575Z,2.73
2019-01-06T05:14:08.025Z,2.83
2019-01-06T05:17:14.194Z,4.60
2019-01-06T05:20:39.024Z,2.10
2019-01-06T05:23:57.352Z,3.90
2019-01-06T05:27:09.162Z,2.37
2019-01-06T05:30:14.428Z,2.33
2019-01-06T05:33:22.154Z,2.23
2019-01-06T05:36:29.601Z,2.70
2019-01-06T05:39:28.549Z,2.77
2019-01-06T05:42:45.314Z,2.50
2019-01-06T05:46:00.920Z,2.33
2019-01-06T05:49:25.605Z,4.03
2019-01-06T05:52:38.243Z,2.20
2019-01-06T05:55:45.717Z,2.00
2019-01-06T05:58:58.063Z,1.40
2019-01-06T06:01:53.680Z,2.67
2019-01-06T06:04:59.988Z,3.03
2019-01-06T06:08:21.868Z,1.47
2019-01-06T06:11:28.269Z,3.53
2019-01-06T06:14:32.765Z,3.37
2019-01-06T06:17:48.366Z,0.70
2019-01-06T06:21:13.639Z,1.27
2019-01-06T06:24:39.441Z,1.90
2019-01-06T06:27:51.753Z,1.83
2019-01-06T06:30:59.694Z,1.83
2019-01-06T06:34:05.172Z,1.03
2019-01-06T06:37:10.326Z,1.80
2019-01-06T06:40:16.649Z,1.20
2019-01-06T06:43:23.230Z,1.60
2019-01-06T06:46:23.781Z,1.57
2019-01-06T06:49:27.162Z,1.73
2019-01-06T06:52:36.479Z,3.73
2019-01-06T06:55:41.707Z,1.63
2019-01-06T06:58:57.380Z,0.90
2019-01-06T07:02:26.069Z,1.63
2019-01-06T07:05:29.072Z,2.77
2019-01-06T07:08:38.296Z,2.10
2019-01-06T07:11:46.946Z,1.50
2019-01-06T07:14:56.197Z,1.03
2019-01-06T07:18:22.548Z,2.03
2019-01-06T07:21:27.714Z,1.37
2019-01-06T07:24:40.340Z,1.33
2019-01-06T07:27:54.533Z,1.20
2019-01-06T07:31:01.336Z,2.20
2019-01-06T07:34:08.420Z,1.33
2019-01-06T07:37:17.742Z,1.07
2019-01-06T07:40:33.450Z,1.00
2019-01-06T07:43:39.777Z,1.27
2019-01-06T07:46:49.457Z,0.80
2019-01-06T07:50:01.605Z,1.40
2019-01-06T07:53:06.342Z,1.07
2019-01-06T07:56:11.898Z,0.60
2019-01-06T07:59:21.767Z,0.70
2019-01-06T08:02:37.026Z,0.70
2019-01-06T08:05:55.598Z,1.13
2019-01-06T08:09:01.174Z,0.83
2019-01-06T08:12:16.833Z,1.10
2019-01-06T08:15:22.078Z,0.60
2019-01-06T08:18:32.671Z,0.90
2019-01-06T08:21:39.343Z,0.93
2019-01-06T08:24:51.317Z,0.73
2019-01-06T08:28:04.014Z,0.80
2019-01-06T08:31:22.209Z,0.93
2019-01-06T08:34:34.912Z,0.73
2019-01-06T08:37:40.235Z,0.50
2019-01-06T08:40:57.115Z,0.73
2019-01-06T08:44:00.606Z,0.80
2019-01-06T08:47:17.528Z,0.73
2019-01-06T08:50:29.721Z,0.90
2019-01-06T08:53:51.032Z,0.90
2019-01-06T08:57:10.081Z,1.00
2019-01-06T09:00:25.524Z,0.60
2019-01-06T09:03:46.885Z,0.80
2019-01-06T09:06:52.373Z,0.70
2019-01-06T09:09:57.812Z,0.87
2019-01-06T09:13:20.966Z,1.20
2019-01-06T09:16:26.212Z,0.80
2019-01-06T09:19:38.715Z,1.17
2019-01-06T09:22:57.152Z,1.00
2019-01-06T09:26:02.410Z,1.10
2019-01-06T09:29:17.922Z,1.00
2019-01-06T09:32:23.667Z,0.80
2019-01-06T09:35:42.487Z,1.13
2019-01-06T09:38:43.040Z,0.80
2019-01-06T09:41:48.318Z,0.73
2019-01-06T09:44:57.555Z,1.03
2019-01-06T09:48:12.911Z,0.80
2019-01-06T09:51:23.777Z,0.80
2019-01-06T09:54:39.761Z,1.07
2019-01-06T09:57:44.631Z,1.37
2019-01-06T10:00:50.268Z,0.97
2019-01-06T10:04:11.798Z,1.53
2019-01-06T10:07:16.801Z,0.77
2019-01-06T10:10:20.544Z,0.80
2019-01-06T10:13:25.970Z,0.87
2019-01-06T10:16:44.265Z,1.37
2019-01-06T10:19:59.572Z,1.27
2019-01-06T10:23:15.619Z,0.77
2019-01-06T10:26:30.733Z,0.80
2019-01-06T10:29:32.326Z,3.30
2019-01-06T10:32:42.359Z,1.40
2019-01-06T10:35:49.838Z,1.27
2019-01-06T10:38:55.156Z,0.90
2019-01-06T10:42:13.178Z,0.80
2019-01-06T10:45:20.552Z,0.90
2019-01-06T10:48:36.114Z,1.10
2019-01-06T10:51:43.913Z,2.50
2019-01-06T10:54:49.068Z,1.30
2019-01-06T10:57:57.148Z,1.57
2019-01-06T11:01:18.373Z,1.00
2019-01-06T11:04:26.483Z,0.93
2019-01-06T11:07:34.068Z,1.13
2019-01-06T11:10:46.757Z,1.23
2019-01-06T11:13:52.210Z,1.90
2019-01-06T11:16:57.352Z,16.57
2019-01-06T11:20:02.537Z,2.20
2019-01-06T11:23:07.618Z,2.70
2019-01-06T11:26:14.323Z,2.07
2019-01-06T11:29:20.286Z,2.47
2019-01-06T11:32:33.053Z,1.60
2019-01-06T11:35:33.349Z,1.47
2019-01-06T11:38:53.942Z,1.70
2019-01-06T11:42:15.963Z,1.20
2019-01-06T11:45:26.069Z,1.40
2019-01-06T11:48:31.093Z,1.33
2019-01-06T11:51:45.249Z,0.80
2019-01-06T11:54:54.655Z,1.27
2019-01-06T11:58:00.631Z,0.90
2019-01-06T12:01:10.768Z,1.30
2019-01-06T12:04:32.341Z,1.73
2019-01-06T12:07:38.710Z,1.73
2019-01-06T12:10:44.103Z,1.17
2019-01-06T12:13:49.368Z,0.97
2019-01-06T12:17:11.515Z,1.13
2019-01-06T12:20:24.107Z,1.20
2019-01-06T12:23:29.374Z,1.30
2019-01-06T12:26:34.780Z,1.07
2019-01-06T12:29:40.443Z,1.03
2019-01-06T12:32:45.777Z,1.80
2019-01-06T12:36:05.114Z,1.63
2019-01-06T12:39:11.595Z,2.13
2019-01-06T12:42:26.520Z,2.17
2019-01-06T12:45:26.004Z,2.83
2019-01-06T12:48:44.701Z,3.43
2019-01-06T12:51:54.028Z,3.77
2019-01-06T12:55:12.237Z,3.67
2019-01-06T12:58:24.281Z,4.77
2019-01-06T13:01:31.841Z,4.60
2019-01-06T13:04:47.393Z,5.27
2019-01-06T13:08:13.816Z,3.93
2019-01-06T13:11:37.327Z,2.30
2019-01-06T13:14:39.897Z,1.70
2019-01-06T13:17:59.237Z,1.60
2019-01-06T13:21:04.722Z,1.43
2019-01-06T13:24:09.947Z,1.30
2019-01-06T13:27:14.090Z,1.20
2019-01-06T13:30:23.372Z,1.40
2019-01-06T13:33:28.309Z,1.57
2019-01-06T13:36:34.089Z,1.67
2019-01-06T13:39:58.607Z,1.60
2019-01-06T13:43:18.207Z,2.40
2019-01-06T13:46:20.889Z,2.67
2019-01-06T13:49:30.572Z,3.30
2019-01-06T13:52:37.077Z,3.67
2019-01-06T13:55:54.867Z,3.43
2019-01-06T13:59:04.091Z,3.30
2019-01-06T14:02:10.138Z,3.37
2019-01-06T14:05:19.917Z,2.20
2019-01-06T14:08:38.480Z,2.00
2019-01-06T14:11:54.327Z,2.47
2019-01-06T14:15:03.755Z,2.50
2019-01-06T14:18:08.831Z,2.60
2019-01-06T14:21:30.380Z,3.13
2019-01-06T14:24:35.365Z,3.33
2019-01-06T14:27:45.020Z,3.67
2019-01-06T14:31:00.641Z,3.90
2019-01-06T14:34:17.899Z,3.70
2019-01-06T14:37:26.905Z,2.50
2019-01-06T14:40:36.446Z,1.77
2019-01-06T14:43:48.643Z,1.10
2019-01-06T14:46:53.732Z,1.77
2019-01-06T14:50:09.370Z,1.50
2019-01-06T14:53:34.103Z,1.60
2019-01-06T14:56:38.649Z,1.40
2019-01-06T14:59:43.577Z,1.70
2019-01-06T15:02:48.429Z,1.30
2019-01-06T15:06:00.696Z,1.87
2019-01-06T15:09:07.269Z,1.60
2019-01-06T15:12:24.738Z,1.57
2019-01-06T15:15:30.394Z,1.60
2019-01-06T15:18:37.378Z,1.73
2019-01-06T15:21:43.479Z,1.70
2019-01-06T15:24:48.979Z,1.90
2019-01-06T15:28:01.009Z,1.90
2019-01-06T15:31:05.941Z,2.07
2019-01-06T15:34:10.182Z,2.00
2019-01-06T15:37:22.663Z,1.97
2019-01-06T15:40:27.891Z,1.90
2019-01-06T15:43:44.429Z,2.07
2019-01-06T15:46:53.199Z,3.03
2019-01-06T15:50:08.722Z,2.00
2019-01-06T15:53:20.303Z,1.70
2019-01-06T15:56:31.790Z,1.57
2019-01-06T15:59:44.149Z,1.60
2019-01-06T16:02:49.374Z,2.13
2019-01-06T16:05:54.985Z,1.40
2019-01-06T16:09:00.062Z,1.50
2019-01-06T16:12:06.751Z,1.70
2019-01-06T16:15:23.244Z,9.33
2019-01-06T16:18:31.291Z,1.63
2019-01-06T16:21:40.369Z,1.23
2019-01-06T16:24:52.543Z,1.30
2019-01-06T16:28:16.798Z,1.20
2019-01-06T16:31:17.947Z,1.33
2019-01-06T16:34:26.989Z,1.30
2019-01-06T16:37:27.688Z,1.57
2019-01-06T16:40:43.145Z,0.93
2019-01-06T16:43:48.157Z,1.77
2019-01-06T16:47:00.602Z,2.10
2019-01-06T16:50:05.347Z,1.20
2019-01-06T16:53:10.179Z,1.30
2019-01-06T16:56:18.578Z,1.40
2019-01-06T16:59:25.214Z,1.60
2019-01-06T17:02:30.402Z,1.77
2019-01-06T17:05:36.567Z,1.80
2019-01-06T17:08:51.841Z,2.13
2019-01-06T17:12:01.146Z,1.70
2019-01-06T17:14:56.780Z,1.73
2019-01-06T17:17:59.465Z,2.27
2019-01-06T17:21:18.739Z,1.87
2019-01-06T17:24:24.821Z,1.97
2019-01-06T17:27:37.245Z,1.80
2019-01-06T17:30:49.946Z,2.50
2019-01-06T17:33:49.176Z,2.37
2019-01-06T17:36:54.243Z,2.10
2019-01-06T17:40:10.046Z,3.07
2019-01-06T17:43:24.099Z,1.97
2019-01-06T17:46:33.898Z,2.00
2019-01-06T17:49:47.248Z,2.17
2019-01-06T17:53:03.408Z,2.50
2019-01-06T17:56:21.970Z,2.60
2019-01-06T17:59:28.293Z,2.50
2019-01-06T18:02:33.308Z,2.40
2019-01-06T18:05:50.616Z,2.67
2019-01-06T18:08:58.898Z,2.70
2019-01-06T18:12:08.444Z,2.67
2019-01-06T18:15:17.448Z,2.47
2019-01-06T18:18:23.131Z,2.50
2019-01-06T18:21:41.845Z,2.30
2019-01-06T18:25:06.600Z,2.50
2019-01-06T18:28:12.906Z,2.50
2019-01-06T18:31:17.899Z,2.60
2019-01-06T18:34:23.637Z,2.77
2019-01-06T18:37:28.880Z,2.83
2019-01-06T18:40:38.452Z,2.80
2019-01-06T18:43:44.392Z,2.93
2019-01-06T18:47:03.419Z,3.17
2019-01-06T18:50:02.330Z,4.43
2019-01-06T18:53:21.002Z,3.10
2019-01-06T18:56:26.695Z,3.00
2019-01-06T18:59:45.453Z,2.83
2019-01-06T19:03:07.737Z,3.00
2019-01-06T19:06:17.288Z,3.10
2019-01-06T19:09:32.533Z,2.60
2019-01-06T19:12:45.618Z,2.93
2019-01-06T19:16:06.963Z,3.33
2019-01-06T19:19:25.448Z,2.87
2019-01-06T19:22:34.840Z,2.50
2019-01-06T19:25:40.055Z,3.23
2019-01-06T19:28:57.335Z,3.03
2019-01-06T19:32:16.254Z,3.00
2019-01-06T19:35:22.202Z,3.00
2019-01-06T19:38:28.460Z,3.10
2019-01-06T19:41:33.593Z,2.87
2019-01-06T19:44:52.331Z,3.07
2019-01-06T19:47:57.612Z,3.00
2019-01-06T19:51:12.853Z,5.60
2019-01-06T19:54:18.434Z,3.07
2019-01-06T19:57:23.822Z,2.93
2019-01-06T20:00:45.350Z,4.57
2019-01-06T20:04:09.882Z,3.10
2019-01-06T20:07:14.851Z,3.27
2019-01-06T20:10:19.923Z,3.17
2019-01-06T20:13:26.432Z,2.70
2019-01-06T20:16:41.793Z,2.97
2019-01-06T20:19:51.609Z,3.07
2019-01-06T20:22:58.169Z,2.47
2019-01-06T20:26:03.523Z,2.90
2019-01-06T20:29:08.695Z,2.70
2019-01-06T20:32:14.306Z,2.70
2019-01-06T20:35:29.793Z,2.77
2019-01-06T20:38:34.786Z,2.80
2019-01-06T20:41:58.701Z,2.60
2019-01-06T20:45:01.343Z,2.47
2019-01-06T20:48:15.939Z,2.30
2019-01-06T20:51:28.422Z,3.20
2019-01-06T20:54:37.486Z,2.50
2019-01-06T20:57:43.325Z,2.90
2019-01-06T21:01:00.449Z,2.60
2019-01-06T21:04:05.825Z,2.73
2019-01-06T21:07:21.190Z,3.23
2019-01-06T21:10:46.052Z,2.50
2019-01-06T21:13:52.786Z,2.33
2019-01-06T21:17:02.132Z,2.73
2019-01-06T21:20:14.399Z,2.97
2019-01-06T21:23:20.686Z,2.57
2019-01-06T21:26:25.376Z,2.40
2019-01-06T21:29:37.451Z,2.40
2019-01-06T21:32:42.042Z,2.47
2019-01-06T21:35:47.119Z,1.70
2019-01-06T21:38:59.492Z,2.60
2019-01-06T21:42:05.901Z,2.50
2019-01-06T21:45:27.770Z,2.60
2019-01-06T21:48:43.823Z,2.10
2019-01-06T21:51:53.310Z,2.30
2019-01-06T21:55:08.099Z,2.00
2019-01-06T21:58:20.453Z,2.33
2019-01-06T22:01:39.194Z,2.70
2019-01-06T22:04:37.334Z,2.00
2019-01-06T22:07:49.538Z,2.10
2019-01-06T22:11:09.526Z,2.87
2019-01-06T22:14:27.542Z,2.20
2019-01-06T22:17:34.424Z,1.67
2019-01-06T22:20:40.733Z,2.33
2019-01-06T22:23:46.092Z,1.80
2019-01-06T22:26:55.087Z,2.25
2019-01-06T22:30:13.612Z,2.47
2019-01-06T22:33:19.246Z,2.60
2019-01-06T22:36:28.115Z,3.17
2019-01-06T22:39:34.357Z,2.13
2019-01-06T22:42:52.903Z,1.80
2019-01-06T22:45:59.182Z,2.27
2019-01-06T22:49:05.468Z,1.57
2019-01-06T22:52:15.731Z,2.20
2019-01-06T22:55:21.042Z,2.03
2019-01-06T22:58:26.630Z,2.43
2019-01-06T23:01:33.553Z,2.00
2019-01-06T23:04:34.268Z,2.20
2019-01-06T23:07:46.532Z,2.00
2019-01-06T23:10:51.246Z,2.20
2019-01-06T23:14:07.006Z,2.43
2019-01-06T23:17:13.321Z,2.63
2019-01-06T23:20:34.702Z,2.10
2019-01-06T23:23:46.539Z,1.90
2019-01-06T23:26:51.546Z,2.20
2019-01-06T23:30:03.370Z,2.30
2019-01-06T23:33:10.876Z,1.80
2019-01-06T23:36:16.974Z,2.27
2019-01-06T23:39:32.353Z,2.20
2019-01-06T23:42:48.026Z,2.20
2019-01-06T23:45:55.055Z,2.40
2019-01-06T23:49:02.802Z,2.13
2019-01-06T23:52:12.331Z,2.07
2019-01-06T23:55:24.730Z,2.10
2019-01-06T23:58:49.070Z,2.40
